createdAt,value
2019-04-27T00:00:53.524Z,13.70
2019-04-27T00:03:54.377Z,13.68
2019-04-27T00:10:06.897Z,12.98
2019-04-27T00:12:46.799Z,13.18
2019-04-27T00:15:31.182Z,13.00
2019-04-27T00:18:15.501Z,13.50
2019-04-27T00:20:57.443Z,13.55
2019-04-27T00:23:36.729Z,13.15
2019-04-27T00:26:16.619Z,13.50
2019-04-27T00:28:56.773Z,13.40
2019-04-27T00:31:37.254Z,14.45
2019-04-27T00:34:16.705Z,13.43
2019-04-27T00:37:03.601Z,12.78
2019-04-27T00:39:44.675Z,13.83
2019-04-27T00:42:23.870Z,13.32
2019-04-27T00:45:05.384Z,14.03
2019-04-27T00:47:56.462Z,13.90
2019-04-27T00:50:26.078Z,14.10
2019-04-27T00:53:03.539Z,13.80
2019-04-27T00:56:09.563Z,13.10
2019-04-27T00:59:09.229Z,13.58
2019-04-27T01:02:08.462Z,13.70
2019-04-27T01:04:48.413Z,12.95
2019-04-27T01:07:27.828Z,13.75
2019-04-27T01:10:07.026Z,13.60
2019-04-27T01:12:46.973Z,13.32
2019-04-27T01:15:27.038Z,12.73
2019-04-27T01:18:12.239Z,13.38
2019-04-27T01:20:48.907Z,13.83
2019-04-27T01:23:29.416Z,13.30
2019-04-27T01:26:29.327Z,12.40
2019-04-27T01:29:14.226Z,12.80
2019-04-27T01:31:53.722Z,13.20
2019-04-27T01:34:33.445Z,14.20
2019-04-27T01:37:13.413Z,13.38
2019-04-27T01:39:53.397Z,14.03
2019-04-27T01:42:33.489Z,13.70
2019-04-27T01:45:11.021Z,13.90
2019-04-27T01:47:50.719Z,13.83
2019-04-27T01:50:30.578Z,13.28
2019-04-27T01:53:09.052Z,12.82
2019-04-27T01:55:55.267Z,13.60
2019-04-27T01:58:34.530Z,13.55
2019-04-27T02:01:34.427Z,13.88
2019-04-27T02:04:21.438Z,12.30
2019-04-27T02:07:05.566Z,13.22
2019-04-27T02:09:45.146Z,13.48
2019-04-27T02:15:37.146Z,13.90
2019-04-27T02:18:17.061Z,12.80
2019-04-27T02:20:59.027Z,14.18
2019-04-27T02:23:39.359Z,13.38
2019-04-27T02:26:21.497Z,13.50
2019-04-27T02:29:20.485Z,13.98
2019-04-27T02:32:05.525Z,13.83
2019-04-27T02:35:05.430Z,13.58
2019-04-27T02:37:44.803Z,13.53
2019-04-27T02:40:24.790Z,14.13
2019-04-27T02:43:05.853Z,14.47
2019-04-27T02:45:45.721Z,13.83
2019-04-27T02:48:25.550Z,13.15
2019-04-27T02:51:06.625Z,14.33
2019-04-27T02:54:01.218Z,14.80
2019-04-27T02:56:41.017Z,14.33
2019-04-27T02:59:21.286Z,14.20
2019-04-27T03:05:12.676Z,14.55
2019-04-27T03:07:50.379Z,13.88
2019-04-27T03:10:31.326Z,13.43
2019-04-27T03:13:13.066Z,14.03
2019-04-27T03:15:56.985Z,13.70
2019-04-27T03:21:53.843Z,13.50
2019-04-27T03:24:34.894Z,13.70
2019-04-27T03:27:15.930Z,14.30
2019-04-27T03:29:56.145Z,13.68
2019-04-27T03:32:36.120Z,14.05
2019-04-27T03:35:13.811Z,13.90
2019-04-27T03:37:53.378Z,13.45
2019-04-27T03:40:33.704Z,14.55
2019-04-27T03:43:15.291Z,13.60
2019-04-27T03:45:54.457Z,13.48
2019-04-27T03:48:34.430Z,13.43
2019-04-27T03:51:16.349Z,13.43
2019-04-27T03:54:00.636Z,13.98
2019-04-27T03:56:42.494Z,13.38
2019-04-27T03:59:23.714Z,13.20
2019-04-27T04:02:03.101Z,13.93
2019-04-27T04:04:42.999Z,13.48
2019-04-27T04:07:22.891Z,14.13
2019-04-27T04:10:03.103Z,12.82
2019-04-27T04:12:44.750Z,12.85
2019-04-27T04:18:19.643Z,13.22
2019-04-27T04:21:00.433Z,12.85
2019-04-27T04:23:40.567Z,14.25
2019-04-27T04:26:20.518Z,12.85
2019-04-27T04:29:00.444Z,12.75
2019-04-27T04:31:40.672Z,13.08
2019-04-27T04:34:20.318Z,13.28
2019-04-27T04:37:00.625Z,12.50
2019-04-27T04:39:40.670Z,12.30
2019-04-27T04:42:22.105Z,13.10
2019-04-27T04:45:07.109Z,13.15
2019-04-27T04:47:52.050Z,12.53
2019-04-27T04:50:31.450Z,12.33
2019-04-27T04:53:12.384Z,13.80
2019-04-27T04:55:52.569Z,12.75
2019-04-27T04:58:32.493Z,12.93
2019-04-27T05:01:12.391Z,12.05
2019-04-27T05:03:52.390Z,12.63
2019-04-27T05:06:29.819Z,13.08
2019-04-27T05:09:16.034Z,12.30
2019-04-27T05:11:55.688Z,11.95
2019-04-27T05:14:35.757Z,12.03
2019-04-27T05:17:15.799Z,11.78
2019-04-27T05:19:55.819Z,13.00
2019-04-27T05:22:35.746Z,11.95
2019-04-27T05:25:15.570Z,12.00
2019-04-27T05:27:54.765Z,11.95
2019-04-27T05:30:34.750Z,11.78
2019-04-27T05:33:15.044Z,12.55
2019-04-27T05:35:54.957Z,12.95
2019-04-27T05:38:34.833Z,12.20
2019-04-27T05:41:15.064Z,11.60
2019-04-27T05:43:58.986Z,11.48
2019-04-27T05:46:58.799Z,11.65
2019-04-27T05:49:44.081Z,11.45
2019-04-27T05:52:29.035Z,11.63
2019-04-27T05:55:08.745Z,11.83
2019-04-27T05:57:49.650Z,11.63
2019-04-27T06:00:29.385Z,11.10
2019-04-27T06:03:09.149Z,11.33
2019-04-27T06:05:48.968Z,11.97
2019-04-27T06:08:29.506Z,10.85
2019-04-27T06:11:09.539Z,10.80
2019-04-27T06:17:01.598Z,11.05
2019-04-27T06:19:40.702Z,11.75
2019-04-27T06:22:20.123Z,10.98
2019-04-27T06:25:00.388Z,11.30
2019-04-27T06:27:41.775Z,10.78
2019-04-27T06:33:34.483Z,11.55
2019-04-27T06:36:14.193Z,11.63
2019-04-27T06:38:53.359Z,10.38
2019-04-27T06:41:33.442Z,11.18
2019-04-27T06:44:12.760Z,11.05
2019-04-27T06:46:51.841Z,11.40
2019-04-27T06:49:31.022Z,10.70
2019-04-27T06:52:08.708Z,11.15
2019-04-27T06:54:48.566Z,11.80
2019-04-27T06:57:29.235Z,11.28
2019-04-27T07:00:09.112Z,11.68
2019-04-27T07:02:49.372Z,11.12
2019-04-27T07:05:29.105Z,10.75
2019-04-27T07:08:09.098Z,11.05
2019-04-27T07:10:49.185Z,11.30
2019-04-27T07:13:29.249Z,11.68
2019-04-27T07:16:09.624Z,10.63
2019-04-27T07:18:50.446Z,10.98
2019-04-27T07:21:30.210Z,10.98
2019-04-27T07:24:10.323Z,11.73
2019-04-27T07:26:49.514Z,11.73
2019-04-27T07:29:15.965Z,10.82
2019-04-27T07:32:02.084Z,10.80
2019-04-27T07:34:41.500Z,10.60
2019-04-27T07:37:21.193Z,10.55
2019-04-27T07:40:00.299Z,10.68
2019-04-27T07:42:42.194Z,10.78
2019-04-27T07:45:26.245Z,10.88
2019-04-27T07:48:05.641Z,10.45
2019-04-27T07:50:45.623Z,9.88
2019-04-27T07:53:25.582Z,10.80
2019-04-27T07:56:05.678Z,10.65
2019-04-27T07:58:45.734Z,10.78
2019-04-27T08:01:24.792Z,11.22
2019-04-27T08:04:04.658Z,10.58
2019-04-27T08:06:44.704Z,11.15
2019-04-27T08:09:24.548Z,10.48
2019-04-27T08:12:03.877Z,10.20
2019-04-27T08:14:43.702Z,10.13
2019-04-27T08:17:22.915Z,11.20
2019-04-27T08:20:02.980Z,9.03
2019-04-27T08:22:43.073Z,9.40
2019-04-27T08:25:23.117Z,9.23
2019-04-27T08:28:22.237Z,9.73
2019-04-27T08:31:21.905Z,10.05
2019-04-27T08:34:01.147Z,9.98
2019-04-27T08:36:41.402Z,10.15
2019-04-27T08:39:21.101Z,10.35
2019-04-27T08:42:01.042Z,9.98
2019-04-27T08:44:40.185Z,9.55
2019-04-27T08:47:20.180Z,10.30
2019-04-27T08:49:59.046Z,10.15
2019-04-27T08:52:45.397Z,10.00
2019-04-27T08:55:22.810Z,10.88
2019-04-27T08:58:10.105Z,10.48
2019-04-27T09:00:50.720Z,10.60
2019-04-27T09:03:29.833Z,9.15
2019-04-27T09:06:10.173Z,9.65
2019-04-27T09:08:51.973Z,10.65
2019-04-27T09:11:33.036Z,10.45
2019-04-27T09:14:19.210Z,10.32
2019-04-27T09:17:02.939Z,10.03
2019-04-27T09:19:44.174Z,10.35
2019-04-27T09:22:23.437Z,10.03
2019-04-27T09:25:03.483Z,9.45
2019-04-27T09:27:43.551Z,10.45
2019-04-27T09:30:23.534Z,9.58
2019-04-27T09:33:03.317Z,10.43
2019-04-27T09:35:42.469Z,10.10
2019-04-27T09:38:21.643Z,9.90
2019-04-27T09:41:00.778Z,9.50
2019-04-27T09:43:40.147Z,9.40
2019-04-27T09:46:19.960Z,9.48
2019-04-27T09:48:59.946Z,9.80
2019-04-27T09:51:39.823Z,9.53
2019-04-27T09:54:19.854Z,8.63
2019-04-27T09:56:58.942Z,8.40
2019-04-27T09:59:39.797Z,9.28
2019-04-27T10:02:19.051Z,8.98
2019-04-27T10:04:59.060Z,9.73
2019-04-27T10:07:36.505Z,9.78
2019-04-27T10:10:22.974Z,9.15
2019-04-27T10:13:00.174Z,10.20
2019-04-27T10:15:40.236Z,9.85
2019-04-27T10:18:19.456Z,9.13
2019-04-27T10:21:02.093Z,9.43
2019-04-27T10:23:40.533Z,9.15
2019-04-27T10:26:19.865Z,9.58
2019-04-27T10:28:59.656Z,8.40
2019-04-27T10:31:39.783Z,9.55
2019-04-27T10:34:19.689Z,9.10
2019-04-27T10:36:58.822Z,9.30
2019-04-27T10:39:43.156Z,9.23
2019-04-27T10:42:23.198Z,9.38
2019-04-27T10:45:03.360Z,8.88
2019-04-27T10:47:43.235Z,9.45
2019-04-27T10:50:23.143Z,9.15
2019-04-27T10:53:03.068Z,9.28
2019-04-27T10:55:42.841Z,8.70
2019-04-27T10:58:21.994Z,9.05
2019-04-27T11:01:03.164Z,9.38
2019-04-27T11:04:02.326Z,8.85
2019-04-27T11:07:08.431Z,9.20
2019-04-27T11:09:47.626Z,8.18
2019-04-27T11:12:26.828Z,9.03
2019-04-27T11:15:07.753Z,7.55
2019-04-27T11:17:47.661Z,8.78
2019-04-27T11:20:27.781Z,9.30
2019-04-27T11:23:12.125Z,7.72
2019-04-27T11:25:48.529Z,8.68
2019-04-27T11:28:28.522Z,8.28
2019-04-27T11:31:07.678Z,8.00
2019-04-27T11:33:48.122Z,8.35
2019-04-27T11:36:29.795Z,8.45
2019-04-27T11:39:08.890Z,8.33
2019-04-27T11:41:48.005Z,8.33
2019-04-27T11:44:27.929Z,8.78
2019-04-27T11:47:07.105Z,8.70
2019-04-27T11:49:45.693Z,8.23
2019-04-27T11:52:25.183Z,7.67
2019-04-27T11:55:05.723Z,8.63
2019-04-27T11:57:46.949Z,7.80
2019-04-27T12:00:27.668Z,8.65
2019-04-27T12:03:07.314Z,8.58
2019-04-27T12:12:12.667Z,8.60
2019-04-27T12:14:38.957Z,8.60
2019-04-27T12:17:18.145Z,9.13
2019-04-27T12:19:58.058Z,8.75
2019-04-27T12:22:38.014Z,8.30
2019-04-27T12:25:17.162Z,8.10
2019-04-27T12:27:59.108Z,8.35
2019-04-27T12:33:51.313Z,8.78
2019-04-27T12:36:31.269Z,9.18
2019-04-27T12:39:10.540Z,8.73
2019-04-27T12:41:50.458Z,8.43
2019-04-27T12:44:30.461Z,8.78
2019-04-27T12:47:10.483Z,8.60
2019-04-27T12:49:50.374Z,8.25
2019-04-27T12:52:29.791Z,8.65
2019-04-27T13:01:07.521Z,8.60
2019-04-27T13:03:47.254Z,8.48
2019-04-27T13:06:27.312Z,8.53
2019-04-27T13:09:07.104Z,7.62
2019-04-27T13:11:46.472Z,7.80
2019-04-27T13:14:26.484Z,8.55
2019-04-27T13:17:06.435Z,7.87
2019-04-27T13:19:45.713Z,9.18
2019-04-27T13:22:25.717Z,8.65
2019-04-27T13:25:05.817Z,8.03
2019-04-27T13:27:45.693Z,8.00
2019-04-27T13:30:25.893Z,8.45
2019-04-27T13:33:05.807Z,8.25
2019-04-27T13:35:45.873Z,8.30
2019-04-27T13:44:22.234Z,7.28
2019-04-27T13:47:04.006Z,8.55
2019-04-27T13:49:47.853Z,8.03
2019-04-27T13:52:29.831Z,7.95
2019-04-27T13:55:08.488Z,7.95
2019-04-27T14:00:30.817Z,7.80
2019-04-27T14:03:10.776Z,7.15
2019-04-27T14:05:49.928Z,7.95
2019-04-27T14:08:29.037Z,8.15
2019-04-27T14:11:09.552Z,7.50
2019-04-27T14:17:01.453Z,7.20
2019-04-27T14:19:41.383Z,7.78
2019-04-27T14:22:21.409Z,8.03
2019-04-27T14:25:01.293Z,7.78
2019-04-27T14:27:41.185Z,7.62
2019-04-27T14:30:20.285Z,7.65
2019-04-27T14:33:09.397Z,7.67
2019-04-27T14:35:49.964Z,8.00
2019-04-27T14:38:29.721Z,7.95
2019-04-27T14:41:09.730Z,8.28
2019-04-27T14:44:04.930Z,7.40
2019-04-27T14:46:30.795Z,7.50
2019-04-27T14:49:10.794Z,7.90
2019-04-27T14:51:50.693Z,7.10
2019-04-27T14:54:45.029Z,7.85
2019-04-27T14:57:11.789Z,7.28
2019-04-27T14:59:51.032Z,7.50
2019-04-27T15:02:30.977Z,7.75
2019-04-27T15:05:10.916Z,7.50
2019-04-27T15:07:50.885Z,7.05
2019-04-27T15:10:33.038Z,7.50
2019-04-27T15:13:12.067Z,7.90
2019-04-27T15:15:51.301Z,7.12
2019-04-27T15:18:39.827Z,7.45
2019-04-27T15:21:17.365Z,8.28
2019-04-27T15:23:57.465Z,7.65
2019-04-27T15:26:37.321Z,8.08
2019-04-27T15:29:20.533Z,7.78
2019-04-27T15:32:04.064Z,7.92
2019-04-27T15:34:48.326Z,7.00
2019-04-27T15:37:34.121Z,7.53
2019-04-27T15:40:33.547Z,7.20
2019-04-27T15:43:14.677Z,7.25
2019-04-27T15:45:57.697Z,7.80
2019-04-27T15:48:34.966Z,7.60
2019-04-27T15:51:19.889Z,7.22
2019-04-27T15:53:56.168Z,7.72
2019-04-27T15:56:37.044Z,7.55
2019-04-27T15:59:18.488Z,7.78
2019-04-27T16:01:58.032Z,8.28
2019-04-27T16:04:38.194Z,8.10
2019-04-27T16:07:24.687Z,7.42
2019-04-27T16:10:02.539Z,7.90
2019-04-27T16:12:54.906Z,8.25
2019-04-27T16:15:21.507Z,8.03
2019-04-27T16:18:00.708Z,8.25
2019-04-27T16:20:40.021Z,8.60
2019-04-27T16:26:32.249Z,8.43
2019-04-27T16:29:11.385Z,8.50
2019-04-27T16:31:51.475Z,8.55
2019-04-27T16:34:33.076Z,7.45
2019-04-27T16:37:13.978Z,8.38
2019-04-27T16:39:55.164Z,8.25
2019-04-27T16:42:35.115Z,8.98
2019-04-27T16:45:12.494Z,8.65
2019-04-27T16:47:56.681Z,8.80
2019-04-27T16:50:33.837Z,9.33
2019-04-27T16:53:13.605Z,9.25
2019-04-27T16:56:01.587Z,8.80
2019-04-27T16:58:36.918Z,9.68
2019-04-27T17:01:41.759Z,9.05
2019-04-27T17:04:18.158Z,9.00
2019-04-27T17:06:59.081Z,9.18
2019-04-27T17:09:42.181Z,8.65
2019-04-27T17:12:23.858Z,9.05
2019-04-27T17:15:05.764Z,9.20
2019-04-27T17:18:04.022Z,9.08
2019-04-27T17:20:44.742Z,9.18
2019-04-27T17:23:29.171Z,9.33
2019-04-27T17:26:20.541Z,8.45
2019-04-27T17:28:51.466Z,8.88
2019-04-27T17:31:33.465Z,8.40
2019-04-27T17:34:14.679Z,9.08
2019-04-27T17:36:56.421Z,8.68
2019-04-27T17:39:35.771Z,8.53
2019-04-27T17:42:13.082Z,8.78
2019-04-27T17:45:00.484Z,9.25
2019-04-27T17:47:40.284Z,9.18
2019-04-27T17:50:25.050Z,9.45
2019-04-27T17:53:01.364Z,9.18
2019-04-27T17:55:41.351Z,8.20
2019-04-27T17:58:21.092Z,9.45
2019-04-27T18:01:01.044Z,8.53
2019-04-27T18:03:41.077Z,8.18
2019-04-27T18:06:24.514Z,9.03
2019-04-27T18:09:04.221Z,8.65
2019-04-27T18:11:43.527Z,8.00
2019-04-27T18:14:23.545Z,8.43
2019-04-27T18:17:03.652Z,8.78
2019-04-27T18:19:45.868Z,9.38
2019-04-27T18:22:28.192Z,8.78
2019-04-27T18:25:09.757Z,8.58
2019-04-27T18:27:54.078Z,8.85
2019-04-27T18:30:38.692Z,8.75
2019-04-27T18:33:18.145Z,9.10
2019-04-27T18:36:04.990Z,8.68
2019-04-27T18:38:41.842Z,8.65
2019-04-27T18:41:21.652Z,9.98
2019-04-27T18:44:02.112Z,8.50
2019-04-27T18:46:53.620Z,8.85
2019-04-27T18:55:31.047Z,9.00
2019-04-27T18:58:15.053Z,8.73
2019-04-27T19:00:52.643Z,8.88
2019-04-27T19:03:31.744Z,8.40
2019-04-27T19:06:11.897Z,8.93
2019-04-27T19:08:51.153Z,8.78
2019-04-27T19:11:30.646Z,8.88
2019-04-27T19:14:10.947Z,8.88
2019-04-27T19:16:50.634Z,8.70
2019-04-27T19:19:29.914Z,8.63
2019-04-27T19:22:09.890Z,9.38
2019-04-27T19:24:47.292Z,9.13
2019-04-27T19:27:48.570Z,8.48
2019-04-27T19:33:35.441Z,9.08
2019-04-27T19:36:14.763Z,9.38
2019-04-27T19:38:53.905Z,8.53
2019-04-27T19:41:33.864Z,9.63
2019-04-27T19:44:13.106Z,8.40
2019-04-27T19:46:53.118Z,8.60
2019-04-27T19:49:32.318Z,8.33
2019-04-27T19:52:11.570Z,8.85
2019-04-27T19:54:50.850Z,9.08
2019-04-27T19:57:37.937Z,8.95
2019-04-27T20:00:31.868Z,8.95
2019-04-27T20:03:13.051Z,8.83
2019-04-27T20:05:52.485Z,8.13
2019-04-27T20:11:36.911Z,8.93
2019-04-27T20:14:23.149Z,7.97
2019-04-27T20:17:03.162Z,8.88
2019-04-27T20:19:42.813Z,8.33
2019-04-27T20:22:24.238Z,8.18
2019-04-27T20:25:03.183Z,8.15
2019-04-27T20:27:48.411Z,8.28
2019-04-27T20:30:23.423Z,7.78
2019-04-27T20:33:03.453Z,7.85
2019-04-27T20:35:42.704Z,7.90
2019-04-27T20:38:22.634Z,7.92
2019-04-27T20:41:02.510Z,8.68
2019-04-27T20:43:42.497Z,8.30
2019-04-27T20:46:22.747Z,8.45
2019-04-27T20:49:04.578Z,8.13
2019-04-27T20:51:50.982Z,8.53
2019-04-27T20:54:30.619Z,9.05
2019-04-27T20:57:11.517Z,8.20
2019-04-27T20:59:52.328Z,8.80
2019-04-27T21:02:36.725Z,8.93
2019-04-27T21:05:21.171Z,9.65
2019-04-27T21:08:03.033Z,8.15
2019-04-27T21:10:42.129Z,8.60
2019-04-27T21:13:22.074Z,8.10
2019-04-27T21:16:02.317Z,8.60
2019-04-27T21:18:42.165Z,8.43
2019-04-27T21:21:22.007Z,8.10
2019-04-27T21:24:01.993Z,8.68
2019-04-27T21:26:42.043Z,8.88
2019-04-27T21:29:21.857Z,8.85
2019-04-27T21:32:01.833Z,9.03
2019-04-27T21:34:41.446Z,8.75
2019-04-27T21:40:21.442Z,8.58
2019-04-27T21:48:57.750Z,8.40
2019-04-27T21:51:42.080Z,8.23
2019-04-27T21:54:22.594Z,8.40
2019-04-27T21:57:00.187Z,9.13
2019-04-27T21:59:46.453Z,8.53
2019-04-27T22:02:25.677Z,8.48
2019-04-27T22:05:05.762Z,8.88
2019-04-27T22:07:45.610Z,9.13
2019-04-27T22:10:25.682Z,8.80
2019-04-27T22:13:05.860Z,9.15
2019-04-27T22:15:45.738Z,9.33
2019-04-27T22:18:25.769Z,9.03
2019-04-27T22:21:05.170Z,9.03
2019-04-27T22:26:38.305Z,9.05
2019-04-27T22:29:18.405Z,9.50
2019-04-27T22:31:58.437Z,9.65
2019-04-27T22:34:37.578Z,9.38
2019-04-27T22:37:16.815Z,8.58
2019-04-27T22:39:58.024Z,9.33
2019-04-27T22:42:42.186Z,9.65
2019-04-27T22:45:24.092Z,9.43
2019-04-27T22:48:04.176Z,10.18
2019-04-27T22:50:44.222Z,10.15
2019-04-27T22:53:24.271Z,9.15
2019-04-27T22:59:17.508Z,9.83
2019-04-27T23:02:02.259Z,10.28
2019-04-27T23:04:43.433Z,10.30
2019-04-27T23:07:22.697Z,9.83
2019-04-27T23:10:01.941Z,10.70
2019-04-27T23:12:41.979Z,10.90
2019-04-27T23:15:23.984Z,10.25
2019-04-27T23:18:03.527Z,10.72
2019-04-27T23:20:43.521Z,10.82
2019-04-27T23:23:23.505Z,10.40
2019-04-27T23:26:02.623Z,10.48
2019-04-27T23:28:41.353Z,11.33
2019-04-27T23:31:25.329Z,11.33
2019-04-27T23:34:04.769Z,10.95
2019-04-27T23:36:44.385Z,10.75
2019-04-27T23:39:23.854Z,10.95
2019-04-27T23:42:06.825Z,11.38
2019-04-27T23:50:58.042Z,11.85
2019-04-27T23:53:38.778Z,11.48
2019-04-27T23:56:18.098Z,11.80
2019-04-27T23:58:58.006Z,11.25
